Time;durP1;ratioP1;P1;durP2;ratioP2;P2;SDS_P1;SDS_P2;PMS_P1;PMS_P2;Temp;Humidity;BMP_temperature;BMP_pressure;BME280_temperature;BME280_humidity;BME280_pressure;Samples;Min_cycle;Max_cycle;Signal;HPM_P1;HPM_P2
2023/05/06 00:00:58;;;;;;;1.45;1.35;;;19.50;62.20;;;;;;4972616;28;20197;-68
2023/05/06 00:03:23;;;;;;;1.63;1.20;;;19.50;62.10;;;;;;4956277;28;20200;-67
2023/05/06 00:05:49;;;;;;;1.50;1.40;;;19.50;62.20;;;;;;4955905;28;20586;-68
2023/05/06 00:08:15;;;;;;;1.38;1.27;;;19.40;62.00;;;;;;4972114;28;20225;-67
2023/05/06 00:10:41;;;;;;;1.50;1.40;;;19.40;62.00;;;;;;4940155;28;20226;-68
2023/05/06 00:13:07;;;;;;;1.50;1.40;;;19.40;62.00;;;;;;4956159;28;20211;-67
2023/05/06 00:15:35;;;;;;;1.48;1.35;;;19.40;62.00;;;;;;4956115;28;20216;-68
2023/05/06 00:18:01;;;;;;;1.20;1.10;;;19.40;62.00;;;;;;4956114;28;20275;-67
2023/05/06 00:20:28;;;;;;;3.13;1.50;;;19.40;62.00;;;;;;4955938;28;20193;-67
2023/05/06 00:22:54;;;;;;;1.60;1.50;;;19.40;62.00;;;;;;4956321;28;20209;-67
2023/05/06 00:25:20;;;;;;;1.52;1.30;;;19.40;62.00;;;;;;4973420;28;20214;-67
2023/05/06 00:27:46;;;;;;;1.52;1.42;;;19.40;62.00;;;;;;4972387;28;20213;-68
2023/05/06 00:30:12;;;;;;;1.70;1.60;;;19.40;62.00;;;;;;4955600;28;20573;-67
2023/05/06 00:32:38;;;;;;;1.30;1.20;;;19.40;62.00;;;;;;4956036;28;20228;-67
2023/05/06 00:35:05;;;;;;;1.48;1.33;;;19.40;62.00;;;;;;4957639;28;20240;-67
2023/05/06 00:37:30;;;;;;;1.40;1.30;;;19.40;62.00;;;;;;4955612;28;20190;-67
2023/05/06 00:39:56;;;;;;;1.50;1.40;;;19.40;62.00;;;;;;4968849;28;20193;-67
2023/05/06 00:42:22;;;;;;;1.50;1.40;;;19.40;62.00;;;;;;4954093;28;20682;-67
2023/05/06 00:44:49;;;;;;;1.38;1.27;;;19.40;62.00;;;;;;4955763;28;20204;-68
2023/05/06 00:47:16;;;;;;;2.03;1.50;;;19.40;62.00;;;;;;4955835;28;20525;-68
2023/05/06 00:49:43;;;;;;;1.40;1.30;;;19.40;62.00;;;;;;4956090;28;20185;-68
2023/05/06 00:52:08;;;;;;;1.83;1.50;;;19.40;62.00;;;;;;4939924;28;20194;-67
2023/05/06 00:54:34;;;;;;;1.25;1.15;;;19.40;61.90;;;;;;4947488;28;20225;-68
2023/05/06 00:57:01;;;;;;;1.58;1.48;;;19.40;62.00;;;;;;4967545;28;20295;-67
2023/05/06 00:59:27;;;;;;;1.45;1.35;;;19.40;61.90;;;;;;4959302;28;20207;-68
2023/05/06 01:01:53;;;;;;;1.40;1.30;;;19.40;61.90;;;;;;4959541;28;20686;-67
2023/05/06 01:04:22;;;;;;;1.50;1.40;;;19.40;62.00;;;;;;4959123;28;20209;-66
2023/05/06 01:07:19;;;;;;;1.50;1.27;;;19.40;62.00;;;;;;4943632;28;20181;-68
2023/05/06 01:10:19;;;;;;;2.05;1.10;;;19.40;62.00;;;;;;4943301;28;20198;-67
2023/05/06 01:13:10;;;;;;;1.73;1.50;;;19.40;62.00;;;;;;4959330;28;20724;-67
2023/05/06 01:15:51;;;;;;;1.48;1.38;;;19.40;62.00;;;;;;4951089;28;20217;-67
2023/05/06 01:18:22;;;;;;;1.30;1.20;;;19.40;61.90;;;;;;4959068;28;20193;-67
2023/05/06 01:20:51;;;;;;;1.75;1.40;;;19.40;61.90;;;;;;4959462;28;20193;-68
2023/05/06 01:23:18;;;;;;;1.60;1.50;;;19.40;61.90;;;;;;4958791;28;20190;-67
2023/05/06 01:25:44;;;;;;;1.20;1.20;;;19.40;61.90;;;;;;4958899;28;20237;-68
2023/05/06 01:28:11;;;;;;;1.30;1.20;;;19.50;62.00;;;;;;4958826;28;20213;-68
2023/05/06 01:30:56;;;;;;;1.50;1.40;;;19.40;61.90;;;;;;4951208;28;20182;-68
2023/05/06 01:33:42;;;;;;;1.95;1.42;;;19.40;61.90;;;;;;4942730;28;20212;-67
2023/05/06 01:36:19;;;;;;;1.40;1.30;;;19.40;61.90;;;;;;4943066;28;20197;-67
2023/05/06 01:39:02;;;;;;;1.33;1.23;;;19.40;61.90;;;;;;4958876;28;20189;-68
2023/05/06 01:41:33;;;;;;;1.35;1.25;;;19.40;61.90;;;;;;4958684;28;20193;-68
2023/05/06 01:44:00;;;;;;;1.40;1.30;;;19.50;62.00;;;;;;4975023;28;20225;-67
2023/05/06 01:46:28;;;;;;;1.50;1.40;;;19.40;61.90;;;;;;4958572;28;20193;-67
2023/05/06 01:49:01;;;;;;;1.50;1.40;;;19.40;61.90;;;;;;4958420;28;20272;-68
2023/05/06 01:51:27;;;;;;;1.55;1.20;;;19.40;61.90;;;;;;4949222;28;20190;-68
2023/05/06 01:53:53;;;;;;;1.60;1.50;;;19.40;62.00;;;;;;4958590;28;20200;-67
2023/05/06 01:56:19;;;;;;;1.20;1.10;;;19.40;61.90;;;;;;4975655;28;20193;-66
2023/05/06 01:58:45;;;;;;;1.50;1.40;;;19.40;61.90;;;;;;4958232;28;20193;-67
2023/05/06 02:01:10;;;;;;;1.45;1.35;;;19.40;61.90;;;;;;4958457;28;20189;-67
2023/05/06 02:03:36;;;;;;;1.55;1.45;;;19.40;61.90;;;;;;4957978;28;20197;-68
2023/05/06 02:06:03;;;;;;;1.60;1.50;;;19.40;62.00;;;;;;4958199;28;20213;-68
2023/05/06 02:08:34;;;;;;;1.23;1.13;;;19.40;61.90;;;;;;4957559;28;20220;-68
2023/05/06 02:11:00;;;;;;;1.45;1.35;;;19.40;61.90;;;;;;4958453;28;20197;-68
2023/05/06 02:13:26;;;;;;;1.95;1.73;;;19.40;61.90;;;;;;4958357;28;20186;-67
2023/05/06 02:15:53;;;;;;;1.33;1.25;;;19.40;61.90;;;;;;4942020;28;20201;-67
2023/05/06 02:18:21;;;;;;;1.52;1.42;;;19.40;61.90;;;;;;4958171;28;20217;-66
2023/05/06 02:20:46;;;;;;;1.48;1.38;;;19.40;61.90;;;;;;4942727;28;20205;-67
2023/05/06 02:23:15;;;;;;;1.50;1.40;;;19.40;61.90;;;;;;4957878;28;20248;-68
2023/05/06 02:25:40;;;;;;;1.30;1.20;;;19.40;61.90;;;;;;4957605;28;20224;-67
2023/05/06 02:28:06;;;;;;;1.35;1.30;;;19.40;61.90;;;;;;4957923;28;20217;-68
2023/05/06 02:30:33;;;;;;;1.50;1.40;;;19.40;61.80;;;;;;4941972;28;20194;-67
2023/05/06 02:32:59;;;;;;;1.70;1.60;;;19.40;61.80;;;;;;4957947;28;20194;-67
2023/05/06 02:35:24;;;;;;;1.45;1.35;;;19.40;61.90;;;;;;4941855;28;20702;-67
2023/05/06 02:37:50;;;;;;;1.50;1.40;;;19.30;61.80;;;;;;4957600;28;20194;-67
2023/05/06 02:40:16;;;;;;;1.48;1.38;;;19.40;61.90;;;;;;4957396;28;20193;-67
2023/05/06 02:42:42;;;;;;;1.00;1.00;;;19.40;61.80;;;;;;4957817;28;20190;-67
2023/05/06 02:45:08;;;;;;;1.20;1.10;;;19.40;61.90;;;;;;4959671;28;20206;-67
2023/05/06 02:47:34;;;;;;;1.48;1.38;;;19.40;61.80;;;;;;4956600;28;20205;-67
2023/05/06 02:50:00;;;;;;;1.40;1.30;;;19.30;61.80;;;;;;4956901;28;20194;-68
2023/05/06 02:52:25;;;;;;;1.40;1.30;;;19.40;61.90;;;;;;4957543;28;20240;-67
2023/05/06 02:54:51;;;;;;;1.50;1.40;;;19.40;61.80;;;;;;4957295;28;20240;-67
2023/05/06 02:57:17;;;;;;;1.10;1.10;;;19.30;61.70;;;;;;4941553;28;20196;-67
2023/05/06 02:59:43;;;;;;;2.13;1.40;;;19.30;61.70;;;;;;4941164;28;20202;-67
2023/05/06 03:02:08;;;;;;;1.40;1.30;;;19.30;61.80;;;;;;4945518;28;20189;-67
2023/05/06 03:04:34;;;;;;;1.55;1.45;;;19.40;61.90;;;;;;4956700;28;20213;-67
2023/05/06 03:07:00;;;;;;;1.52;1.42;;;19.30;61.80;;;;;;4940996;28;20216;-68
2023/05/06 03:09:26;;;;;;;1.52;1.42;;;19.30;61.80;;;;;;4956991;28;20241;-68
2023/05/06 03:11:52;;;;;;;1.58;1.48;;;19.30;61.70;;;;;;4957028;28;20185;-67
2023/05/06 03:14:19;;;;;;;1.13;1.13;;;19.30;61.70;;;;;;4956889;28;20682;-66
2023/05/06 03:20:52;;;;;;;1.50;1.40;;;19.30;61.70;;;;;;4973085;28;20200;-67
2023/05/06 03:23:18;;;;;;;1.27;1.23;;;19.30;61.70;;;;;;4956845;28;20246;-68
2023/05/06 03:25:44;;;;;;;1.35;1.25;;;19.30;61.70;;;;;;4940806;28;20217;-67
2023/05/06 03:28:11;;;;;;;1.45;1.13;;;19.30;61.70;;;;;;4958270;28;20209;-68
2023/05/06 03:30:38;;;;;;;1.63;1.40;;;19.30;61.70;;;;;;4956903;28;20193;-67
2023/05/06 03:33:05;;;;;;;1.38;1.27;;;19.30;61.60;;;;;;4956875;28;20281;-67
2023/05/06 03:35:32;;;;;;;1.75;1.10;;;19.40;61.80;;;;;;4972293;28;20219;-68
2023/05/06 03:38:00;;;;;;;1.50;1.40;;;19.30;61.60;;;;;;4956505;28;20276;-67
2023/05/06 03:40:33;;;;;;;1.35;1.35;;;19.30;61.60;;;;;;4956752;28;20282;-67
2023/05/06 03:42:58;;;;;;;1.73;1.63;;;19.30;61.60;;;;;;4969672;28;20197;-68
2023/05/06 03:45:25;;;;;;;1.17;1.17;;;19.30;61.70;;;;;;4953831;28;20284;-67
2023/05/06 03:47:52;;;;;;;3.95;1.52;;;19.30;61.60;;;;;;4940426;28;20232;-67
2023/05/06 03:50:20;;;;;;;1.20;1.20;;;19.40;61.70;;;;;;4952033;28;20196;-67
2023/05/06 03:52:46;;;;;;;1.50;1.40;;;19.30;61.60;;;;;;4956660;28;20185;-68
2023/05/06 03:55:12;;;;;;;1.10;1.10;;;19.30;61.60;;;;;;4940181;28;20257;-67
2023/05/06 03:57:38;;;;;;;1.08;1.08;;;19.30;61.60;;;;;;4955984;28;20190;-67
2023/05/06 04:00:05;;;;;;;1.20;1.20;;;19.30;61.60;;;;;;4969383;28;20187;-68
2023/05/06 04:02:42;;;;;;;1.40;1.30;;;19.30;61.60;;;;;;4986713;28;20185;-67
2023/05/06 04:05:09;;;;;;;1.17;1.17;;;19.30;61.50;;;;;;4968848;28;20202;-67
2023/05/06 04:07:35;;;;;;;1.17;1.17;;;19.40;61.70;;;;;;4956293;28;20189;-67
2023/05/06 04:10:00;;;;;;;1.20;1.10;;;19.30;61.50;;;;;;4956182;28;20197;-67
2023/05/06 04:12:26;;;;;;;1.25;1.15;;;19.30;61.50;;;;;;4970468;28;20217;-66
2023/05/06 04:14:52;;;;;;;0.95;0.95;;;19.30;61.50;;;;;;4955711;28;20820;-67
2023/05/06 04:17:18;;;;;;;1.10;1.05;;;19.30;61.50;;;;;;4956100;28;20220;-67
2023/05/06 04:19:46;;;;;;;1.05;0.98;;;19.30;61.50;;;;;;4956134;28;20272;-67
2023/05/06 04:22:12;;;;;;;0.95;0.93;;;19.30;61.60;;;;;;4940441;28;20189;-67
2023/05/06 04:24:40;;;;;;;1.33;1.23;;;19.30;61.50;;;;;;4955836;28;20253;-66
2023/05/06 04:27:07;;;;;;;1.23;1.15;;;19.30;61.50;;;;;;4955927;28;20781;-67
2023/05/06 04:29:33;;;;;;;0.90;0.90;;;19.30;61.50;;;;;;4973035;28;20213;-68
2023/05/06 04:32:03;;;;;;;0.88;0.88;;;19.30;61.50;;;;;;4960099;28;20181;-68
2023/05/06 04:34:31;;;;;;;1.20;1.10;;;19.30;61.50;;;;;;4959525;28;20241;-67
2023/05/06 04:37:00;;;;;;;1.00;1.00;;;19.30;61.50;;;;;;4959556;28;20182;-67
2023/05/06 04:39:54;;;;;;;1.13;1.10;;;19.30;61.50;;;;;;4961795;28;20224;-67
2023/05/06 04:42:21;;;;;;;1.15;1.10;;;19.30;61.50;;;;;;4959823;28;20186;-67
2023/05/06 04:44:57;;;;;;;1.17;1.17;;;19.30;61.50;;;;;;4975684;28;20209;-67
2023/05/06 04:47:28;;;;;;;1.15;1.08;;;19.30;61.60;;;;;;4944220;28;20193;-67
2023/05/06 04:49:54;;;;;;;0.98;0.98;;;19.30;61.50;;;;;;4943779;28;20194;-67
2023/05/06 04:52:20;;;;;;;2.40;1.20;;;19.30;61.50;;;;;;4959429;28;20189;-67
2023/05/06 04:54:47;;;;;;;1.10;1.10;;;19.30;61.50;;;;;;4959216;28;20236;-69
2023/05/06 04:57:13;;;;;;;0.80;0.80;;;19.30;61.50;;;;;;4959404;28;20570;-68
2023/05/06 04:59:41;;;;;;;1.00;1.00;;;19.30;61.50;;;;;;4943738;28;20186;-67
2023/05/06 05:02:07;;;;;;;1.23;1.00;;;19.30;61.50;;;;;;4959272;28;20204;-68
2023/05/06 05:04:33;;;;;;;1.17;1.08;;;19.30;61.50;;;;;;4973146;28;20218;-67
2023/05/06 05:06:59;;;;;;;1.00;1.00;;;19.30;61.60;;;;;;4943384;28;20190;-67
2023/05/06 05:09:26;;;;;;;0.80;0.80;;;19.30;61.50;;;;;;4959020;28;20209;-67
2023/05/06 05:11:52;;;;;;;0.88;0.88;;;19.30;61.50;;;;;;4959541;28;20185;-68
2023/05/06 05:14:18;;;;;;;1.10;1.10;;;19.30;61.50;;;;;;4943389;28;20209;-67
2023/05/06 05:16:44;;;;;;;1.10;1.00;;;19.30;61.50;;;;;;4959253;28;20197;-66
2023/05/06 05:19:10;;;;;;;0.90;0.90;;;19.30;61.60;;;;;;4959147;28;20186;-68
2023/05/06 05:21:36;;;;;;;1.02;1.02;;;19.30;61.60;;;;;;4957277;28;20213;-68
2023/05/06 05:24:03;;;;;;;1.20;1.00;;;19.30;61.50;;;;;;4943302;28;20217;-67
2023/05/06 05:26:29;;;;;;;0.88;0.88;;;19.30;61.50;;;;;;4958923;28;20201;-68
2023/05/06 05:28:57;;;;;;;0.80;0.80;;;19.30;61.60;;;;;;4959829;28;20209;-67
2023/05/06 05:31:24;;;;;;;1.20;1.10;;;19.30;61.50;;;;;;4958928;28;20564;-68
2023/05/06 05:33:50;;;;;;;0.65;0.65;;;19.30;62.30;;;;;;4942711;28;20721;-67
2023/05/06 05:36:19;;;;;;;0.93;0.90;;;19.30;61.50;;;;;;4943301;28;20276;-67
2023/05/06 05:38:48;;;;;;;1.13;1.02;;;19.30;61.60;;;;;;4942991;28;20190;-67
2023/05/06 05:41:15;;;;;;;1.00;1.00;;;19.30;61.60;;;;;;4942142;28;20186;-67
2023/05/06 05:43:41;;;;;;;1.17;1.08;;;19.30;61.50;;;;;;4958221;28;20685;-67
2023/05/06 05:46:08;;;;;;;0.80;0.80;;;19.30;61.50;;;;;;4958525;28;20197;-67
2023/05/06 05:48:35;;;;;;;0.75;0.75;;;19.30;61.60;;;;;;4956501;28;20709;-67
2023/05/06 05:51:03;;;;;;;0.88;0.88;;;19.20;61.40;;;;;;4942640;28;20240;-67
2023/05/06 05:53:28;;;;;;;0.80;0.80;;;19.30;61.50;;;;;;4942389;28;20197;-67
2023/05/06 05:55:54;;;;;;;0.90;0.90;;;19.30;61.60;;;;;;4990580;28;20213;-67
2023/05/06 05:58:20;;;;;;;1.05;1.05;;;19.30;61.60;;;;;;4958683;28;20196;-67
2023/05/06 06:00:46;;;;;;;0.90;0.90;;;19.30;61.60;;;;;;4958242;28;20692;-67
2023/05/06 06:03:17;;;;;;;1.00;1.00;;;19.30;61.60;;;;;;4971139;28;20205;-68
2023/05/06 06:05:43;;;;;;;0.80;0.80;;;19.30;61.60;;;;;;4958258;28;20215;-68
2023/05/06 06:08:09;;;;;;;1.00;1.00;;;19.30;61.60;;;;;;4958015;28;20209;-68
2023/05/06 06:10:35;;;;;;;1.10;1.10;;;19.30;61.60;;;;;;4958376;28;20724;-68
2023/05/06 06:13:06;;;;;;;0.80;0.80;;;19.30;61.50;;;;;;4958396;28;20193;-66
2023/05/06 06:15:32;;;;;;;1.00;1.00;;;19.30;61.60;;;;;;4958072;28;20213;-68
2023/05/06 06:17:58;;;;;;;1.30;0.98;;;19.20;61.50;;;;;;4957998;28;20252;-67
2023/05/06 06:20:26;;;;;;;0.90;0.90;;;19.30;61.60;;;;;;4958082;28;20228;-68
2023/05/06 06:22:52;;;;;;;0.93;0.93;;;19.20;61.50;;;;;;4957822;28;20186;-68
2023/05/06 06:25:18;;;;;;;1.00;1.00;;;19.30;61.60;;;;;;4973938;28;20304;-67
2023/05/06 06:27:44;;;;;;;1.10;1.00;;;19.30;61.60;;;;;;4941317;28;20269;-67
2023/05/06 06:30:12;;;;;;;1.02;1.00;;;19.30;61.70;;;;;;4958221;28;20199;-68
2023/05/06 06:32:52;;;;;;;1.00;1.00;;;19.30;61.60;;;;;;4957678;28;20732;-67
2023/05/06 06:35:22;;;;;;;1.00;1.00;;;19.20;61.50;;;;;;4941817;28;20213;-68
2023/05/06 06:37:48;;;;;;;1.00;1.00;;;19.20;61.50;;;;;;4973657;28;20253;-67
2023/05/06 06:40:14;;;;;;;0.93;0.93;;;19.30;61.60;;;;;;4957639;28;20197;-67
2023/05/06 06:42:40;;;;;;;0.82;0.82;;;19.20;61.50;;;;;;4963582;28;20201;-67
2023/05/06 06:45:17;;;;;;;0.80;0.80;;;19.30;61.60;;;;;;4989788;28;20205;-67
2023/05/06 06:47:43;;;;;;;0.95;0.95;;;19.30;61.60;;;;;;4957612;28;20196;-67
2023/05/06 06:50:10;;;;;;;0.90;0.90;;;19.20;61.50;;;;;;4975167;28;20213;-68
2023/05/06 06:52:36;;;;;;;0.80;0.80;;;19.20;61.60;;;;;;4973207;28;20194;-67
2023/05/06 06:55:02;;;;;;;1.08;0.98;;;19.30;61.60;;;;;;4956998;28;20226;-68
2023/05/06 06:57:27;;;;;;;0.80;0.80;;;19.30;61.70;;;;;;4970311;28;20273;-67
2023/05/06 06:59:54;;;;;;;1.00;1.00;;;19.20;61.60;;;;;;4973239;28;20265;-67
2023/05/06 07:02:20;;;;;;;1.20;1.00;;;19.30;61.80;;;;;;4957561;28;20189;-66
2023/05/06 07:04:46;;;;;;;1.10;0.90;;;19.30;61.70;;;;;;4957191;28;20223;-67
2023/05/06 07:07:13;;;;;;;1.02;1.02;;;19.30;61.70;;;;;;4957128;28;20197;-66
2023/05/06 07:09:38;;;;;;;0.80;0.80;;;19.30;61.70;;;;;;4957354;28;20244;-66
2023/05/06 07:12:06;;;;;;;1.10;1.00;;;19.30;61.70;;;;;;4957031;28;20244;-68
2023/05/06 07:14:32;;;;;;;0.70;0.70;;;19.30;61.70;;;;;;4961683;28;20677;-68
2023/05/06 07:16:59;;;;;;;1.63;0.90;;;19.30;61.80;;;;;;4974219;28;20186;-67
2023/05/06 07:19:26;;;;;;;0.93;0.90;;;19.30;61.80;;;;;;4957002;28;20194;-67
2023/05/06 07:21:52;;;;;;;0.90;0.90;;;19.30;61.70;;;;;;4957233;28;20209;-67
2023/05/06 07:24:18;;;;;;;0.82;0.82;;;19.20;62.30;;;;;;4956648;28;20205;-67
2023/05/06 07:26:44;;;;;;;0.95;0.95;;;19.20;61.60;;;;;;4940464;28;20201;-68
2023/05/06 07:29:09;;;;;;;0.77;0.77;;;19.30;61.80;;;;;;4956611;28;20221;-68
2023/05/06 07:31:35;;;;;;;0.82;0.82;;;19.30;61.80;;;;;;4973872;28;20193;-68
2023/05/06 07:34:01;;;;;;;1.00;0.90;;;19.30;61.90;;;;;;4940514;28;20209;-67
2023/05/06 07:36:27;;;;;;;0.90;0.90;;;19.30;61.80;;;;;;4973616;28;20676;-67
2023/05/06 07:38:53;;;;;;;0.90;0.90;;;19.30;61.70;;;;;;4956421;28;20197;-68
2023/05/06 07:41:19;;;;;;;1.23;1.08;;;19.40;61.60;;;;;;4973727;28;20775;-67
2023/05/06 07:43:45;;;;;;;0.80;0.80;;;19.40;61.70;;;;;;4956458;28;20309;-68
2023/05/06 07:46:11;;;;;;;0.95;0.90;;;19.40;61.70;;;;;;4956293;28;20337;-68
2023/05/06 07:48:37;;;;;;;0.88;0.88;;;19.50;61.70;;;;;;4956201;28;20221;-68
2023/05/06 07:51:03;;;;;;;1.17;1.00;;;19.50;61.70;;;;;;4973706;28;20214;-67
2023/05/06 07:53:29;;;;;;;1.10;1.00;;;19.50;61.60;;;;;;4940500;28;20281;-67
2023/05/06 07:56:00;;;;;;;1.00;1.00;;;19.60;61.60;;;;;;4973155;28;20276;-67
2023/05/06 07:58:28;;;;;;;0.88;0.88;;;19.60;61.50;;;;;;4940612;28;20193;-68
2023/05/06 08:00:53;;;;;;;0.85;0.85;;;19.60;61.60;;;;;;4956112;28;20263;-68
2023/05/06 08:03:19;;;;;;;0.95;0.80;;;19.60;61.50;;;;;;4939946;28;20679;-68
2023/05/06 08:05:45;;;;;;;0.93;0.93;;;19.60;61.50;;;;;;4954824;28;20209;-67
2023/05/06 08:08:10;;;;;;;0.90;0.90;;;19.60;61.60;;;;;;4956193;28;20244;-68
2023/05/06 08:10:36;;;;;;;1.23;0.90;;;19.60;61.70;;;;;;4956153;28;20220;-66
2023/05/06 08:13:02;;;;;;;0.90;0.90;;;19.60;61.70;;;;;;4972294;28;20186;-68
2023/05/06 08:15:28;;;;;;;0.68;0.68;;;19.50;61.60;;;;;;4956205;28;20224;-67
2023/05/06 08:17:54;;;;;;;1.98;1.33;;;19.60;61.70;;;;;;4940254;28;20268;-67
2023/05/06 08:20:20;;;;;;;0.77;0.77;;;19.60;61.70;;;;;;4940089;28;20228;-67
2023/05/06 08:22:46;;;;;;;1.00;0.90;;;19.60;61.60;;;;;;4971928;28;20201;-67
2023/05/06 08:25:11;;;;;;;1.50;1.00;;;19.60;61.60;;;;;;4955778;28;20688;-67
2023/05/06 08:27:39;;;;;;;1.00;1.00;;;19.60;61.80;;;;;;4956238;28;20212;-67
2023/05/06 08:30:05;;;;;;;0.80;0.80;;;19.60;61.70;;;;;;4968913;28;20194;-67
2023/05/06 08:32:31;;;;;;;1.08;0.90;;;19.60;61.70;;;;;;4976913;28;20194;-67
2023/05/06 08:34:58;;;;;;;0.80;0.80;;;19.60;61.70;;;;;;4955152;28;20267;-67
2023/05/06 08:37:24;;;;;;;0.82;0.82;;;19.60;61.70;;;;;;4955837;28;20269;-67
2023/05/06 08:39:50;;;;;;;0.82;0.82;;;19.60;61.60;;;;;;4939751;28;20285;-67
2023/05/06 08:42:16;;;;;;;0.80;0.80;;;19.60;61.70;;;;;;4940390;28;20212;-68
2023/05/06 08:44:43;;;;;;;0.82;0.82;;;19.60;61.90;;;;;;4963255;28;20703;-66
2023/05/06 08:47:09;;;;;;;0.95;0.95;;;19.60;61.90;;;;;;4947711;28;20204;-69
2023/05/06 08:49:35;;;;;;;1.50;0.70;;;19.60;62.00;;;;;;4955451;28;20220;-67
2023/05/06 08:52:05;;;;;;;1.30;1.00;;;19.60;61.80;;;;;;4955673;28;20190;-67
2023/05/06 08:54:37;;;;;;;0.88;0.88;;;19.60;61.90;;;;;;4955369;28;20309;-67
2023/05/06 08:57:07;;;;;;;0.77;0.77;;;19.60;61.90;;;;;;4955597;28;20197;-67
2023/05/06 08:59:34;;;;;;;0.75;0.70;;;19.60;61.90;;;;;;4952658;29;20202;-68
2023/05/06 09:02:01;;;;;;;1.00;0.88;;;19.70;61.90;;;;;;4955333;28;20205;-67
2023/05/06 09:04:27;;;;;;;1.05;1.00;;;19.70;61.80;;;;;;4939361;28;20265;-66
2023/05/06 09:06:53;;;;;;;0.98;0.90;;;19.70;62.00;;;;;;4955527;28;20193;-67
2023/05/06 09:09:19;;;;;;;0.95;0.80;;;19.70;62.00;;;;;;4972814;28;20206;-67
2023/05/06 09:11:52;;;;;;;1.63;0.80;;;19.70;62.00;;;;;;4955453;28;20190;-67
2023/05/06 09:14:19;;;;;;;0.80;0.73;;;19.70;61.90;;;;;;4939444;28;20643;-67
2023/05/06 09:16:51;;;;;;;1.13;1.02;;;19.70;61.80;;;;;;4956967;28;20244;-67
2023/05/06 09:19:19;;;;;;;1.08;0.90;;;19.70;61.70;;;;;;4972051;28;20654;-67
2023/05/06 09:21:47;;;;;;;1.63;0.70;;;19.70;61.60;;;;;;4956674;28;20259;-67
2023/05/06 09:24:15;;;;;;;0.93;0.93;;;19.70;61.60;;;;;;4959177;28;20214;-68
2023/05/06 09:26:43;;;;;;;0.90;0.90;;;19.70;61.80;;;;;;4958854;28;20303;-66
2023/05/06 09:29:09;;;;;;;0.90;0.80;;;19.70;61.70;;;;;;4959240;28;20210;-68
2023/05/06 09:31:44;;;;;;;1.10;1.00;;;19.80;61.80;;;;;;4958876;28;20194;-67
2023/05/06 09:34:11;;;;;;;1.20;0.77;;;19.80;62.00;;;;;;4967690;28;20324;-67
2023/05/06 09:36:38;;;;;;;1.27;0.85;;;19.80;62.00;;;;;;4958903;28;20192;-67
2023/05/06 09:39:05;;;;;;;0.95;0.88;;;19.70;62.00;;;;;;4958709;28;20271;-68
2023/05/06 09:41:31;;;;;;;1.10;1.00;;;19.80;62.30;;;;;;4958806;28;20720;-68
2023/05/06 09:43:58;;;;;;;0.90;0.75;;;19.80;62.30;;;;;;4975912;28;20185;-66
2023/05/06 09:46:26;;;;;;;1.35;1.10;;;19.80;62.40;;;;;;4966417;28;20344;-68
2023/05/06 09:48:55;;;;;;;1.50;1.08;;;19.80;62.20;;;;;;4973015;28;20218;-67
2023/05/06 09:51:21;;;;;;;1.17;0.90;;;19.80;62.60;;;;;;4958709;28;20236;-68
2023/05/06 09:53:47;;;;;;;2.08;0.90;;;19.70;62.30;;;;;;4974631;28;20276;-67
2023/05/06 09:56:15;;;;;;;1.15;0.80;;;19.70;62.40;;;;;;4990725;28;20325;-67
2023/05/06 09:58:41;;;;;;;0.90;0.90;;;19.70;62.40;;;;;;4942592;28;20185;-67
2023/05/06 10:01:08;;;;;;;1.42;1.20;;;19.80;62.20;;;;;;4942370;28;20279;-65
2023/05/06 10:03:35;;;;;;;1.02;0.93;;;19.80;62.10;;;;;;4958026;28;20192;-67
2023/05/06 10:06:04;;;;;;;1.25;0.90;;;19.70;62.00;;;;;;4942070;28;20210;-67
2023/05/06 10:08:33;;;;;;;0.90;0.90;;;19.80;62.30;;;;;;4937428;28;20206;-67
2023/05/06 10:11:05;;;;;;;0.80;0.80;;;19.80;63.00;;;;;;4942149;28;20186;-66
2023/05/06 10:13:31;;;;;;;0.80;0.80;;;19.80;62.10;;;;;;4942146;28;20232;-67
2023/05/06 10:16:00;;;;;;;2.83;1.08;;;19.80;62.10;;;;;;4941509;28;20212;-67
2023/05/06 10:18:29;;;;;;;2.08;1.10;;;19.80;62.10;;;;;;4957910;28;20189;-68
2023/05/06 10:20:58;;;;;;;1.13;0.93;;;19.80;62.10;;;;;;4958144;28;20201;-68
2023/05/06 10:23:43;;;;;;;0.90;0.90;;;19.80;62.20;;;;;;4957899;28;20653;-67
2023/05/06 10:26:16;;;;;;;2.58;0.80;;;19.80;62.20;;;;;;4957963;28;20189;-68
2023/05/06 10:28:48;;;;;;;2.53;1.10;;;19.80;62.30;;;;;;4941340;28;20209;-67
2023/05/06 10:31:15;;;;;;;2.20;0.82;;;19.80;62.20;;;;;;4990469;28;20194;-67
2023/05/06 10:33:47;;;;;;;0.88;0.85;;;19.80;62.30;;;;;;4957627;28;20181;-65
2023/05/06 10:36:23;;;;;;;1.40;1.00;;;19.80;62.30;;;;;;4936807;28;20218;-67
2023/05/06 10:38:59;;;;;;;1.42;1.00;;;19.80;62.20;;;;;;4957645;28;20277;-67
2023/05/06 10:41:27;;;;;;;1.77;1.10;;;19.80;62.20;;;;;;4957518;28;20200;-67
2023/05/06 10:43:55;;;;;;;1.38;1.02;;;19.80;62.10;;;;;;4955255;28;20194;-67
2023/05/06 10:46:24;;;;;;;1.50;1.20;;;19.80;62.10;;;;;;4957230;28;20182;-67
2023/05/06 10:49:07;;;;;;;1.17;0.98;;;19.80;62.90;;;;;;4957441;28;20206;-67
2023/05/06 10:51:43;;;;;;;1.13;0.95;;;19.80;62.20;;;;;;4941530;28;20252;-67
2023/05/06 10:54:20;;;;;;;1.67;1.20;;;19.80;62.90;;;;;;4981345;28;20627;-67
2023/05/06 10:56:49;;;;;;;1.20;1.02;;;19.80;62.20;;;;;;4957570;28;20194;-66
2023/05/06 10:59:23;;;;;;;1.17;1.13;;;19.80;62.30;;;;;;4949560;28;20281;-67
2023/05/06 11:02:07;;;;;;;1.42;1.02;;;19.80;62.30;;;;;;4941307;28;20256;-67
2023/05/06 11:04:33;;;;;;;1.00;0.90;;;19.80;62.20;;;;;;4957238;28;20213;-68
2023/05/06 11:07:12;;;;;;;1.10;1.00;;;19.80;62.20;;;;;;4957166;28;20206;-68
2023/05/06 11:10:00;;;;;;;1.17;0.90;;;19.80;62.20;;;;;;4941155;28;20205;-65
2023/05/06 11:12:47;;;;;;;2.78;1.00;;;19.80;62.20;;;;;;4967245;28;20204;-64
2023/05/06 11:15:49;;;;;;;1.67;0.93;;;19.80;62.20;;;;;;4936789;28;20708;-66
2023/05/06 11:18:25;;;;;;;1.27;1.00;;;19.80;62.10;;;;;;4950013;28;20251;-66
2023/05/06 11:21:01;;;;;;;1.85;1.00;;;19.80;62.10;;;;;;4941061;28;20196;-66
2023/05/06 11:23:48;;;;;;;1.30;0.90;;;19.80;62.10;;;;;;4957035;28;20236;-67
2023/05/06 11:26:15;;;;;;;1.25;0.90;;;19.80;62.20;;;;;;4940988;28;20194;-68
2023/05/06 11:28:49;;;;;;;1.08;1.00;;;19.80;62.20;;;;;;4956670;28;20205;-67
2023/05/06 11:31:16;;;;;;;1.23;1.13;;;19.80;62.10;;;;;;4941787;28;20220;-67
2023/05/06 11:33:48;;;;;;;2.17;1.02;;;19.90;62.20;;;;;;4957012;28;20197;-67
2023/05/06 11:36:20;;;;;;;1.25;1.05;;;19.80;62.20;;;;;;4940778;28;20182;-67
2023/05/06 11:38:46;;;;;;;1.27;1.10;;;19.80;62.20;;;;;;4956703;28;20197;-67
2023/05/06 11:41:13;;;;;;;2.00;1.08;;;19.80;62.20;;;;;;4941112;28;20192;-68
2023/05/06 11:43:49;;;;;;;2.20;1.00;;;19.80;62.10;;;;;;4960883;28;20198;-67
2023/05/06 11:46:17;;;;;;;2.42;1.13;;;19.80;62.20;;;;;;4940007;28;20195;-67
2023/05/06 11:48:42;;;;;;;3.33;1.38;;;19.90;62.40;;;;;;4956439;28;20209;-67
2023/05/06 11:51:08;;;;;;;1.35;1.10;;;19.90;62.40;;;;;;4963933;28;20248;-67
2023/05/06 11:53:34;;;;;;;2.35;1.00;;;19.80;62.20;;;;;;4956410;28;20221;-68
2023/05/06 11:56:00;;;;;;;1.00;0.90;;;19.90;62.40;;;;;;4939739;28;20224;-67
2023/05/06 11:58:28;;;;;;;2.15;1.20;;;19.90;62.30;;;;;;4940043;28;20214;-67
2023/05/06 12:01:00;;;;;;;1.13;0.88;;;19.90;62.30;;;;;;4940105;28;20296;-67
2023/05/06 12:03:30;;;;;;;1.50;0.90;;;19.90;62.20;;;;;;4940095;28;20193;-66
2023/05/06 12:05:57;;;;;;;2.28;1.10;;;19.90;62.10;;;;;;4956172;28;20220;-67
2023/05/06 12:08:28;;;;;;;3.10;1.25;;;19.80;62.00;;;;;;4940222;28;20248;-68
2023/05/06 12:10:58;;;;;;;0.82;0.82;;;19.90;62.10;;;;;;4948024;28;20193;-67
2023/05/06 12:13:24;;;;;;;2.85;0.93;;;19.90;62.10;;;;;;4940054;28;20269;-68
2023/05/06 12:15:52;;;;;;;1.35;1.10;;;19.90;62.10;;;;;;4939520;28;20695;-67
2023/05/06 12:18:18;;;;;;;1.67;0.90;;;19.90;62.10;;;;;;4939546;28;20197;-68
2023/05/06 12:20:44;;;;;;;1.92;1.13;;;19.90;62.10;;;;;;4939657;28;20186;-65
2023/05/06 12:23:13;;;;;;;2.28;0.90;;;19.90;62.00;;;;;;4955727;28;20704;-66
2023/05/06 12:25:41;;;;;;;0.85;0.85;;;19.90;62.00;;;;;;4940021;28;20213;-67
2023/05/06 12:28:18;;;;;;;0.90;0.90;;;19.90;62.00;;;;;;4955804;28;20356;-66
2023/05/06 12:30:45;;;;;;;1.30;1.05;;;19.90;62.00;;;;;;4955912;28;20216;-66
2023/05/06 12:33:11;;;;;;;1.23;1.00;;;19.90;61.90;;;;;;4939873;28;20189;-66
2023/05/06 12:35:39;;;;;;;2.08;1.20;;;19.90;61.80;;;;;;4939510;28;20201;-65
2023/05/06 12:38:15;;;;;;;1.27;1.00;;;19.90;61.80;;;;;;4955718;28;20232;-67
2023/05/06 12:40:44;;;;;;;1.63;0.98;;;19.90;61.80;;;;;;4940231;28;20244;-68
2023/05/06 12:43:11;;;;;;;1.77;0.90;;;19.90;61.80;;;;;;4939874;28;20317;-67
2023/05/06 12:45:38;;;;;;;0.90;0.80;;;19.90;61.80;;;;;;4955460;28;20205;-67
2023/05/06 12:48:05;;;;;;;1.75;1.05;;;19.90;61.80;;;;;;4939822;28;20241;-67
2023/05/06 12:50:35;;;;;;;1.25;1.00;;;19.90;61.90;;;;;;4939705;28;20241;-67
2023/05/06 12:53:03;;;;;;;2.03;0.95;;;19.90;61.90;;;;;;4959584;28;20194;-67
2023/05/06 12:55:33;;;;;;;1.20;0.98;;;19.90;61.80;;;;;;4959326;28;20213;-68
2023/05/06 12:57:59;;;;;;;1.92;1.30;;;19.90;61.90;;;;;;4973264;28;20201;-68